createdAt,value
2022-10-17T00:00:11.403Z,11.29
2022-10-17T00:02:39.619Z,11.29
2022-10-17T00:05:06.331Z,11.25
2022-10-17T00:07:32.746Z,11.27
2022-10-17T00:09:59.372Z,11.25
2022-10-17T00:12:27.017Z,11.21
2022-10-17T00:14:53.424Z,11.20
2022-10-17T00:17:19.872Z,11.15
2022-10-17T00:19:46.612Z,11.11
2022-10-17T00:22:13.864Z,11.08
2022-10-17T00:24:40.304Z,11.09
2022-10-17T00:27:07.050Z,11.06
2022-10-17T00:29:33.517Z,11.04
2022-10-17T00:31:59.979Z,11.04
2022-10-17T00:34:29.307Z,11.03
2022-10-17T00:36:55.684Z,10.99
2022-10-17T00:39:21.981Z,10.95
2022-10-17T00:41:48.685Z,10.91
2022-10-17T00:44:30.629Z,10.91
2022-10-17T00:47:06.664Z,10.86
2022-10-17T00:49:35.758Z,10.88
2022-10-17T00:52:06.037Z,10.80
2022-10-17T00:54:36.521Z,10.81
2022-10-17T00:57:04.407Z,10.85
2022-10-17T00:59:34.078Z,10.80
2022-10-17T01:02:04.231Z,10.80
2022-10-17T01:04:30.894Z,10.75
2022-10-17T01:06:57.493Z,10.71
2022-10-17T01:09:26.387Z,10.70
2022-10-17T01:12:13.464Z,10.68
2022-10-17T01:14:58.239Z,10.63
2022-10-17T01:17:46.086Z,10.60
2022-10-17T01:20:50.133Z,10.56
2022-10-17T01:23:41.657Z,10.54
2022-10-17T01:26:55.055Z,10.48
2022-10-17T01:29:33.701Z,10.46
2022-10-17T01:32:09.140Z,10.42
2022-10-17T01:34:59.393Z,10.36
2022-10-17T01:38:03.120Z,10.36
2022-10-17T01:40:55.510Z,10.34
2022-10-17T01:43:45.204Z,10.35
2022-10-17T01:46:24.944Z,10.26
2022-10-17T01:48:56.269Z,10.27
2022-10-17T01:51:36.884Z,10.22
2022-10-17T01:54:10.991Z,10.20
2022-10-17T01:56:40.009Z,10.19
2022-10-17T01:59:21.564Z,10.21
2022-10-17T02:01:52.290Z,10.17
2022-10-17T02:04:18.777Z,10.20
2022-10-17T02:06:46.400Z,10.27
2022-10-17T02:09:26.406Z,10.24
2022-10-17T02:11:57.641Z,10.20
2022-10-17T02:15:02.025Z,10.15
2022-10-17T02:17:44.992Z,10.12
2022-10-17T02:20:25.549Z,10.09
2022-10-17T02:23:23.696Z,10.03
2022-10-17T02:26:01.183Z,10.02
2022-10-17T02:28:31.435Z,10.02
2022-10-17T02:31:45.623Z,10.02
2022-10-17T02:34:20.120Z,9.96
2022-10-17T02:36:52.174Z,9.95
2022-10-17T02:39:25.298Z,9.89
2022-10-17T02:42:12.351Z,9.88
2022-10-17T02:44:43.421Z,9.86
2022-10-17T02:47:32.663Z,9.82
2022-10-17T02:50:01.614Z,9.78
2022-10-17T02:52:35.929Z,9.77
2022-10-17T02:55:20.392Z,9.73
2022-10-17T02:58:01.768Z,9.70
2022-10-17T03:00:30.882Z,9.70
2022-10-17T03:02:57.330Z,9.70
2022-10-17T03:05:29.691Z,9.73
2022-10-17T03:07:56.597Z,9.71
2022-10-17T03:10:23.542Z,9.68
2022-10-17T03:12:51.411Z,9.66
2022-10-17T03:15:19.313Z,9.66
2022-10-17T03:20:11.974Z,9.60
2022-10-17T03:22:38.337Z,9.64
2022-10-17T03:25:05.040Z,9.65
2022-10-17T03:27:33.086Z,9.59
2022-10-17T03:30:02.161Z,9.58
2022-10-17T03:32:28.577Z,9.58
2022-10-17T03:34:54.986Z,9.55
2022-10-17T03:37:21.293Z,9.50
2022-10-17T03:39:47.718Z,9.48
2022-10-17T03:42:14.059Z,9.49
2022-10-17T03:44:40.687Z,9.43
2022-10-17T03:47:09.261Z,9.47
2022-10-17T03:49:38.370Z,9.45
2022-10-17T03:52:04.826Z,9.44
2022-10-17T03:54:31.223Z,9.43
2022-10-17T03:56:59.992Z,9.42
2022-10-17T03:59:27.654Z,9.43
2022-10-17T04:01:54.226Z,9.43
2022-10-17T04:04:20.827Z,9.43
2022-10-17T04:06:47.452Z,9.45
2022-10-17T04:09:14.300Z,9.44
2022-10-17T04:11:40.752Z,9.44
2022-10-17T04:14:07.439Z,9.46
2022-10-17T04:16:33.950Z,9.41
2022-10-17T04:19:00.846Z,9.39
2022-10-17T04:21:28.638Z,9.35
2022-10-17T04:23:57.684Z,9.37
2022-10-17T04:26:24.876Z,9.34
2022-10-17T04:28:51.757Z,9.33
2022-10-17T04:31:18.538Z,9.30
2022-10-17T04:33:48.094Z,9.27
2022-10-17T04:36:18.312Z,9.21
2022-10-17T04:38:45.338Z,9.22
2022-10-17T04:41:14.723Z,9.27
2022-10-17T04:43:43.555Z,9.19
2022-10-17T04:46:15.157Z,9.16
2022-10-17T04:48:42.199Z,9.14
2022-10-17T04:51:12.648Z,9.11
2022-10-17T04:53:40.581Z,9.11
2022-10-17T04:56:18.801Z,9.08
2022-10-17T04:58:46.224Z,9.07
2022-10-17T05:01:23.805Z,9.06
2022-10-17T05:03:50.510Z,9.05
2022-10-17T05:06:20.456Z,9.02
2022-10-17T05:08:47.450Z,9.02
2022-10-17T05:11:23.204Z,8.95
2022-10-17T05:13:52.067Z,8.93
2022-10-17T05:16:18.520Z,8.93
2022-10-17T05:18:52.688Z,8.90
2022-10-17T05:21:21.705Z,8.91
2022-10-17T05:23:48.109Z,8.89
2022-10-17T05:26:14.913Z,8.89
2022-10-17T05:28:41.699Z,8.87
2022-10-17T05:31:11.502Z,8.87
2022-10-17T05:33:39.366Z,8.88
2022-10-17T05:36:07.436Z,8.88
2022-10-17T05:38:33.884Z,8.87
2022-10-17T05:41:02.540Z,8.88
2022-10-17T05:43:32.877Z,8.88
2022-10-17T05:45:59.622Z,8.90
2022-10-17T05:48:29.166Z,8.91
2022-10-17T05:51:09.247Z,8.91
2022-10-17T05:53:39.010Z,8.91
2022-10-17T05:56:09.596Z,8.93
2022-10-17T05:58:49.685Z,8.93
2022-10-17T06:01:16.509Z,8.94
2022-10-17T06:03:45.393Z,8.93
2022-10-17T06:06:13.470Z,8.94
2022-10-17T06:08:40.424Z,8.92
2022-10-17T06:11:09.955Z,8.95
2022-10-17T06:13:37.585Z,8.96
2022-10-17T06:27:12.238Z,9.22
2022-10-17T06:29:39.066Z,9.27
2022-10-17T06:32:06.933Z,9.35
2022-10-17T06:34:35.315Z,9.38
2022-10-17T06:37:05.646Z,9.43
2022-10-17T06:39:34.438Z,9.48
2022-10-17T06:42:05.088Z,9.59
2022-10-17T06:44:31.468Z,9.69
2022-10-17T06:46:59.016Z,9.64
2022-10-17T06:49:25.784Z,9.63
2022-10-17T06:51:54.143Z,9.70
2022-10-17T06:54:20.510Z,9.86
2022-10-17T06:56:47.410Z,9.88
2022-10-17T06:59:13.868Z,9.97
2022-10-17T07:01:43.099Z,9.95
2022-10-17T07:04:12.888Z,10.18
2022-10-17T07:06:39.568Z,10.29
2022-10-17T07:09:06.760Z,10.62
2022-10-17T07:11:36.245Z,10.96
2022-10-17T07:14:03.995Z,11.15
2022-10-17T07:16:30.441Z,11.19
2022-10-17T07:18:56.890Z,11.46
2022-10-17T07:21:25.776Z,11.69
2022-10-17T07:23:53.792Z,11.84
2022-10-17T07:26:20.711Z,12.04
2022-10-17T07:28:51.223Z,12.29
2022-10-17T07:31:19.406Z,12.44
2022-10-17T07:33:48.772Z,12.48
2022-10-17T07:36:19.573Z,12.60
2022-10-17T07:38:46.480Z,12.62
2022-10-17T07:41:16.554Z,12.54
2022-10-17T07:43:46.487Z,12.64
2022-10-17T07:46:13.236Z,12.63
2022-10-17T07:48:40.231Z,12.60
2022-10-17T07:51:11.331Z,12.88
2022-10-17T07:53:39.831Z,13.13
2022-10-17T07:56:09.524Z,13.31
2022-10-17T07:58:39.970Z,13.47
2022-10-17T08:01:13.781Z,13.61
2022-10-17T08:03:46.580Z,13.80
2022-10-17T08:06:13.790Z,14.23
2022-10-17T08:08:41.546Z,14.49
2022-10-17T08:11:11.383Z,14.31
2022-10-17T08:13:38.848Z,14.09
2022-10-17T08:16:08.393Z,14.56
2022-10-17T08:18:36.027Z,14.72
2022-10-17T08:21:07.303Z,14.63
2022-10-17T08:23:34.349Z,14.75
2022-10-17T08:26:02.343Z,14.93
2022-10-17T08:28:28.923Z,15.06
2022-10-17T08:31:13.005Z,15.25
2022-10-17T08:33:39.957Z,15.53
2022-10-17T08:36:07.472Z,15.50
2022-10-17T08:38:36.869Z,15.89
2022-10-17T08:41:14.252Z,16.04
2022-10-17T08:43:55.656Z,16.53
2022-10-17T08:46:24.987Z,16.53
2022-10-17T08:48:51.977Z,16.65
2022-10-17T08:51:24.639Z,16.73
2022-10-17T08:53:57.965Z,16.54
2022-10-17T08:59:17.755Z,17.10
2022-10-17T09:02:09.015Z,17.27
2022-10-17T09:04:44.440Z,17.58
2022-10-17T09:07:51.480Z,17.15
2022-10-17T09:10:41.678Z,17.46
2022-10-17T09:13:38.233Z,18.18
2022-10-17T09:16:36.710Z,18.84
2022-10-17T09:19:19.596Z,19.12
2022-10-17T09:22:00.544Z,18.67
2022-10-17T09:24:32.818Z,18.46
2022-10-17T09:27:00.185Z,18.81
2022-10-17T09:29:36.072Z,18.92
2022-10-17T09:32:17.407Z,18.87
2022-10-17T09:34:43.976Z,18.82
2022-10-17T09:37:15.882Z,18.77
2022-10-17T09:39:45.014Z,18.95
2022-10-17T09:42:17.352Z,18.92
2022-10-17T09:44:55.789Z,19.10
2022-10-17T09:47:47.576Z,19.03
2022-10-17T09:50:34.920Z,19.27
2022-10-17T09:53:12.176Z,19.93
2022-10-17T09:55:48.771Z,19.65
2022-10-17T09:58:16.049Z,20.47
2022-10-17T10:00:46.071Z,20.15
2022-10-17T10:03:26.519Z,19.99
2022-10-17T10:06:06.272Z,19.84
2022-10-17T10:08:47.767Z,19.69
2022-10-17T10:11:16.112Z,19.60
2022-10-17T10:13:43.255Z,19.70
2022-10-17T10:16:30.772Z,19.86
2022-10-17T10:18:57.671Z,20.10
2022-10-17T10:21:27.023Z,20.19
2022-10-17T10:23:59.513Z,20.49
2022-10-17T10:26:44.098Z,20.92
2022-10-17T10:29:39.061Z,20.78
2022-10-17T10:32:27.143Z,21.03
2022-10-17T10:34:55.414Z,21.28
2022-10-17T10:37:27.655Z,20.75
2022-10-17T10:39:59.578Z,20.96
2022-10-17T10:42:33.037Z,20.98
2022-10-17T10:45:46.476Z,21.11
2022-10-17T10:48:14.476Z,21.43
2022-10-17T10:50:48.430Z,21.65
2022-10-17T10:53:37.112Z,22.04
2022-10-17T10:56:24.770Z,22.08
2022-10-17T10:59:01.974Z,22.04
2022-10-17T11:01:46.419Z,22.16
2022-10-17T11:04:47.597Z,21.98
2022-10-17T11:07:28.664Z,21.59
2022-10-17T11:10:16.692Z,21.60
2022-10-17T11:13:03.880Z,21.80
2022-10-17T11:15:37.353Z,21.99
2022-10-17T11:18:07.178Z,22.36
2022-10-17T11:20:54.766Z,22.59
2022-10-17T11:23:30.385Z,22.65
2022-10-17T11:26:01.536Z,22.65
2022-10-17T11:28:33.058Z,22.22
2022-10-17T11:31:18.992Z,22.46
2022-10-17T11:33:50.370Z,22.60
2022-10-17T11:36:19.849Z,22.70
2022-10-17T11:38:46.514Z,22.86
2022-10-17T11:41:22.144Z,22.90
2022-10-17T11:43:56.753Z,22.76
2022-10-17T11:46:33.383Z,23.07
2022-10-17T11:49:02.611Z,23.36
2022-10-17T11:54:39.879Z,24.20
2022-10-17T11:57:33.779Z,24.57
2022-10-17T12:00:27.169Z,24.68
2022-10-17T12:03:14.966Z,24.91
2022-10-17T12:06:09.890Z,24.48
2022-10-17T12:08:50.133Z,24.73
2022-10-17T12:11:27.424Z,24.70
2022-10-17T12:13:57.272Z,24.71
2022-10-17T12:16:30.548Z,24.52
2022-10-17T12:19:04.644Z,24.97
2022-10-17T12:22:11.135Z,25.19
2022-10-17T12:24:48.142Z,24.48
2022-10-17T12:27:36.029Z,24.64
2022-10-17T12:30:14.342Z,25.15
2022-10-17T12:33:06.279Z,25.01
2022-10-17T12:35:36.090Z,25.01
2022-10-17T12:38:22.872Z,24.84
2022-10-17T12:40:54.208Z,24.53
2022-10-17T12:43:29.482Z,25.21
2022-10-17T12:46:03.934Z,25.20
2022-10-17T12:48:33.486Z,25.16
2022-10-17T12:54:15.190Z,25.36
2022-10-17T12:56:46.071Z,25.45
2022-10-17T12:59:28.711Z,25.77
2022-10-17T13:02:03.498Z,26.08
2022-10-17T13:04:31.568Z,25.79
2022-10-17T13:06:59.439Z,25.97
2022-10-17T13:09:33.418Z,25.94
2022-10-17T13:12:06.021Z,26.12
2022-10-17T13:14:36.362Z,25.97
2022-10-17T13:17:05.732Z,25.77
2022-10-17T13:19:44.470Z,25.92
2022-10-17T13:22:26.793Z,26.09
2022-10-17T13:25:20.350Z,25.90
2022-10-17T13:27:47.804Z,25.69
2022-10-17T13:30:29.425Z,25.64
2022-10-17T13:32:59.398Z,25.51
2022-10-17T13:35:58.872Z,25.62
2022-10-17T13:38:24.466Z,25.91
2022-10-17T13:41:01.327Z,25.74
2022-10-17T13:43:32.748Z,25.80
2022-10-17T13:46:13.802Z,25.73
2022-10-17T13:48:49.538Z,25.82
2022-10-17T13:51:16.286Z,25.91
2022-10-17T13:53:42.705Z,25.75
2022-10-17T13:56:38.759Z,25.61
2022-10-17T13:59:36.287Z,25.61
2022-10-17T14:02:03.534Z,25.53
2022-10-17T14:04:44.697Z,25.08
2022-10-17T14:07:26.606Z,25.03
2022-10-17T14:09:53.433Z,25.17
2022-10-17T14:12:20.989Z,25.26
2022-10-17T14:15:12.696Z,25.37
2022-10-17T14:17:36.947Z,25.20
2022-10-17T14:23:20.794Z,24.89
2022-10-17T14:25:42.001Z,24.43
2022-10-17T14:28:17.264Z,24.02
2022-10-17T14:31:02.169Z,23.96
2022-10-17T14:33:31.085Z,23.86
2022-10-17T14:36:00.824Z,23.82
2022-10-17T14:38:29.204Z,23.74
2022-10-17T14:41:37.313Z,23.58
2022-10-17T14:44:14.001Z,23.60
2022-10-17T14:46:48.452Z,23.50
2022-10-17T14:49:25.114Z,23.48
2022-10-17T14:52:25.806Z,23.36
2022-10-17T14:54:52.270Z,23.24
2022-10-17T14:57:44.633Z,23.19
2022-10-17T15:00:16.962Z,23.16
2022-10-17T15:02:44.609Z,23.04
2022-10-17T15:05:13.455Z,22.96
2022-10-17T15:07:42.393Z,22.87
2022-10-17T15:10:28.143Z,22.82
2022-10-17T15:12:59.079Z,22.75
2022-10-17T15:15:37.553Z,22.65
2022-10-17T15:18:06.562Z,22.65
2022-10-17T15:20:34.610Z,22.60
2022-10-17T15:23:02.257Z,22.51
2022-10-17T15:25:31.924Z,22.37
2022-10-17T15:27:58.706Z,22.39
2022-10-17T15:30:31.201Z,22.43
2022-10-17T15:32:58.151Z,22.25
2022-10-17T15:35:26.192Z,22.17
2022-10-17T15:37:53.126Z,22.10
2022-10-17T15:40:23.448Z,22.13
2022-10-17T15:42:50.408Z,22.16
2022-10-17T15:45:19.052Z,22.03
2022-10-17T15:47:55.160Z,21.89
2022-10-17T15:50:21.787Z,21.81
2022-10-17T15:52:52.604Z,21.74
2022-10-17T15:55:19.972Z,21.60
2022-10-17T15:57:48.404Z,21.51
2022-10-17T16:00:18.971Z,21.48
2022-10-17T16:02:50.808Z,21.31
2022-10-17T16:05:23.710Z,21.18
2022-10-17T16:07:50.395Z,21.04
2022-10-17T16:10:17.590Z,20.92
2022-10-17T16:12:47.272Z,20.87
2022-10-17T16:15:18.089Z,20.66
2022-10-17T16:17:46.140Z,20.52
2022-10-17T16:20:12.875Z,20.33
2022-10-17T16:22:44.075Z,20.20
2022-10-17T16:25:36.982Z,20.04
2022-10-17T16:28:03.462Z,19.92
2022-10-17T16:30:31.273Z,19.78
2022-10-17T16:32:57.862Z,19.61
2022-10-17T16:35:26.790Z,19.39
2022-10-17T16:37:53.498Z,19.26
2022-10-17T16:40:20.138Z,19.15
2022-10-17T16:42:48.826Z,19.08
2022-10-17T16:45:23.423Z,18.97
2022-10-17T16:47:53.027Z,18.82
2022-10-17T16:50:20.077Z,18.72
2022-10-17T16:52:50.823Z,18.62
2022-10-17T16:55:17.277Z,18.52
2022-10-17T17:00:12.920Z,18.36
2022-10-17T17:02:39.504Z,18.23
2022-10-17T17:05:06.779Z,18.13
2022-10-17T17:07:34.490Z,18.03
2022-10-17T17:10:02.953Z,17.91
2022-10-17T17:12:34.474Z,17.82
2022-10-17T17:15:01.081Z,17.75
2022-10-17T17:17:37.388Z,17.64
2022-10-17T17:20:11.168Z,17.60
2022-10-17T17:22:37.609Z,17.53
2022-10-17T17:25:04.496Z,17.46
2022-10-17T17:27:31.133Z,17.40
2022-10-17T17:29:57.826Z,17.26
2022-10-17T17:32:24.267Z,17.14
2022-10-17T17:34:53.813Z,17.07
2022-10-17T17:37:20.202Z,16.97
2022-10-17T17:39:47.625Z,16.91
2022-10-17T17:42:14.179Z,16.85
2022-10-17T17:44:41.366Z,16.82
2022-10-17T17:47:10.070Z,16.76
2022-10-17T17:49:36.669Z,16.69
2022-10-17T17:54:29.875Z,16.56
2022-10-17T17:56:57.363Z,16.52
2022-10-17T17:59:24.006Z,16.46
2022-10-17T18:01:51.614Z,16.38
2022-10-17T18:04:18.756Z,16.30
2022-10-17T18:06:45.125Z,16.28
2022-10-17T18:09:11.512Z,16.23
2022-10-17T18:11:38.502Z,16.14
2022-10-17T18:14:12.133Z,16.10
2022-10-17T18:16:38.538Z,16.00
2022-10-17T18:19:07.579Z,15.97
2022-10-17T18:21:34.652Z,15.88
2022-10-17T18:24:03.173Z,15.83
2022-10-17T18:26:29.776Z,15.74
2022-10-17T18:28:57.305Z,15.67
2022-10-17T18:31:25.057Z,15.60
2022-10-17T18:33:55.013Z,15.55
2022-10-17T18:36:22.948Z,15.48
2022-10-17T18:38:50.829Z,15.42
2022-10-17T18:41:19.343Z,15.40
2022-10-17T18:43:47.413Z,15.34
2022-10-17T18:46:16.438Z,15.31
2022-10-17T18:48:44.896Z,15.28
2022-10-17T18:51:13.202Z,15.23
2022-10-17T18:53:41.529Z,15.20
2022-10-17T18:56:12.506Z,15.18
2022-10-17T18:58:40.104Z,15.12
2022-10-17T19:01:21.352Z,15.07
2022-10-17T19:03:49.804Z,15.01
2022-10-17T19:06:19.319Z,14.97
2022-10-17T19:08:46.951Z,14.96
2022-10-17T19:11:21.665Z,14.96
2022-10-17T19:13:48.797Z,14.94
2022-10-17T19:16:24.269Z,14.88
2022-10-17T19:19:00.213Z,14.85
2022-10-17T19:21:26.760Z,14.79
2022-10-17T19:23:59.159Z,14.72
2022-10-17T19:26:29.792Z,14.65
2022-10-17T19:28:58.592Z,14.60
2022-10-17T19:31:27.356Z,14.52
2022-10-17T19:33:55.153Z,14.52
2022-10-17T19:36:23.595Z,14.52
2022-10-17T19:38:55.372Z,14.46
2022-10-17T19:41:25.072Z,14.40
2022-10-17T19:43:52.155Z,14.31
2022-10-17T19:46:21.464Z,14.22
2022-10-17T19:48:49.052Z,14.17
2022-10-17T19:51:17.762Z,14.13
2022-10-17T19:53:45.451Z,14.10
2022-10-17T19:56:13.513Z,14.09
2022-10-17T19:58:40.980Z,14.07
2022-10-17T20:01:09.537Z,14.03
2022-10-17T20:03:36.418Z,13.96
2022-10-17T20:06:03.884Z,13.91
2022-10-17T20:08:30.968Z,13.88
2022-10-17T20:11:05.127Z,13.83
2022-10-17T20:13:31.831Z,13.79
2022-10-17T20:15:59.580Z,13.72
2022-10-17T20:18:26.999Z,13.68
2022-10-17T20:20:54.427Z,13.65
2022-10-17T20:23:21.873Z,13.57
2022-10-17T20:26:13.308Z,13.53
2022-10-17T20:28:44.427Z,13.51
2022-10-17T20:31:12.035Z,13.49
2022-10-17T20:33:38.460Z,13.43
2022-10-17T20:36:06.224Z,13.42
2022-10-17T20:38:32.837Z,13.38
2022-10-17T20:41:04.260Z,13.36
2022-10-17T20:43:30.665Z,13.35
2022-10-17T20:46:03.683Z,13.27
2022-10-17T20:48:36.307Z,13.27
2022-10-17T20:51:10.215Z,13.22
2022-10-17T20:53:38.013Z,13.21
2022-10-17T20:56:07.588Z,13.18
2022-10-17T20:58:34.465Z,13.17
2022-10-17T21:01:08.826Z,13.17
2022-10-17T21:03:41.032Z,13.15
2022-10-17T21:06:10.690Z,13.17
2022-10-17T21:08:37.789Z,13.21
2022-10-17T21:11:21.009Z,13.22
2022-10-17T21:13:53.630Z,13.18
2022-10-17T21:16:20.593Z,13.16
2022-10-17T21:18:47.597Z,13.13
2022-10-17T21:21:27.660Z,13.12
2022-10-17T21:23:57.266Z,13.09
2022-10-17T21:26:25.218Z,13.04
2022-10-17T21:28:55.476Z,12.99
2022-10-17T21:31:24.348Z,12.95
2022-10-17T21:33:54.663Z,12.91
2022-10-17T21:36:22.280Z,12.87
2022-10-17T21:38:51.895Z,12.82
2022-10-17T21:41:21.075Z,12.81
2022-10-17T21:43:48.261Z,12.79
2022-10-17T21:46:16.952Z,12.77
2022-10-17T21:48:44.558Z,12.81
2022-10-17T21:51:13.529Z,12.79
2022-10-17T21:53:40.460Z,12.77
2022-10-17T21:56:12.833Z,12.72
2022-10-17T21:58:39.234Z,12.68
2022-10-17T22:01:11.822Z,12.63
2022-10-17T22:03:44.074Z,12.62
2022-10-17T22:06:38.651Z,12.58
2022-10-17T22:09:04.636Z,12.53
2022-10-17T22:11:32.964Z,12.52
2022-10-17T22:14:05.090Z,12.47
2022-10-17T22:16:31.965Z,12.44
2022-10-17T22:19:04.817Z,12.40
2022-10-17T22:21:34.327Z,12.35
2022-10-17T22:24:02.973Z,12.32
2022-10-17T22:26:31.367Z,12.33
2022-10-17T22:28:59.407Z,12.32
2022-10-17T22:31:26.371Z,12.30
2022-10-17T22:33:52.929Z,12.29
2022-10-17T22:36:19.488Z,12.25
2022-10-17T22:38:45.938Z,12.22
2022-10-17T22:41:12.549Z,12.20
2022-10-17T22:43:44.528Z,12.17
2022-10-17T22:46:13.086Z,12.18
2022-10-17T22:48:39.622Z,12.17
2022-10-17T22:51:06.267Z,12.16
2022-10-17T22:53:32.815Z,12.13
2022-10-17T22:56:01.243Z,12.11
2022-10-17T22:58:29.549Z,12.07
2022-10-17T23:00:56.552Z,12.06
2022-10-17T23:03:24.382Z,12.04
2022-10-17T23:05:52.255Z,12.02
2022-10-17T23:08:19.182Z,12.00
2022-10-17T23:10:46.863Z,11.95
2022-10-17T23:13:14.542Z,11.93
2022-10-17T23:15:42.136Z,11.90
2022-10-17T23:18:09.400Z,11.89
2022-10-17T23:20:37.596Z,11.90
2022-10-17T23:23:04.622Z,11.89
2022-10-17T23:25:33.699Z,11.87
2022-10-17T23:28:00.618Z,11.90
2022-10-17T23:30:27.312Z,11.91
2022-10-17T23:32:54.026Z,11.92
2022-10-17T23:35:20.370Z,11.88
2022-10-17T23:37:46.890Z,11.86
2022-10-17T23:40:13.461Z,11.78
2022-10-17T23:42:40.091Z,11.76
2022-10-17T23:45:07.309Z,11.74
2022-10-17T23:47:34.426Z,11.70
2022-10-17T23:50:01.035Z,11.64
2022-10-17T23:52:27.537Z,11.63
2022-10-17T23:54:53.968Z,11.67
2022-10-17T23:57:20.267Z,11.66
2022-10-17T23:59:46.707Z,11.65
